Time;durP1;ratioP1;P1;durP2;ratioP2;P2;SDS_P1;SDS_P2;PMS_P1;PMS_P2;Temp;Humidity;BMP_temperature;BMP_pressure;BME280_temperature;BME280_humidity;BME280_pressure;Samples;Min_cycle;Max_cycle;Signal;HPM_P1;HPM_P2
2023/11/01 00:00:34;;;;;;;4.85;0.70;;;11.60;99.90;;;;;;4995323;28;20479;-79
2023/11/01 00:03:00;;;;;;;6.03;0.75;;;11.60;99.90;;;;;;5007236;28;20041;-79
2023/11/01 00:05:27;;;;;;;5.30;0.82;;;11.60;99.90;;;;;;5005664;28;20053;-78
2023/11/01 00:07:54;;;;;;;2.10;0.60;;;11.60;99.90;;;;;;5005248;28;20521;-79
2023/11/01 00:10:21;;;;;;;4.30;0.68;;;11.60;99.90;;;;;;5001857;28;20514;-78
2023/11/01 00:12:48;;;;;;;3.38;0.65;;;11.70;99.90;;;;;;5001851;28;20061;-79
2023/11/01 00:15:14;;;;;;;4.28;0.73;;;11.60;99.90;;;;;;5008612;28;20109;-78
2023/11/01 00:17:41;;;;;;;8.50;0.98;;;11.60;99.90;;;;;;5004999;28;20046;-76
2023/11/01 00:20:09;;;;;;;2.95;0.60;;;11.60;99.90;;;;;;5018041;28;20038;-77
2023/11/01 00:22:35;;;;;;;4.25;0.95;;;11.60;99.90;;;;;;5001655;28;20570;-77
2023/11/01 00:25:03;;;;;;;1.98;0.60;;;11.60;99.90;;;;;;5002926;28;20046;-77
2023/11/01 00:27:31;;;;;;;3.30;0.77;;;11.60;99.90;;;;;;4999405;28;20081;-78
2023/11/01 00:30:00;;;;;;;2.40;0.90;;;11.70;99.90;;;;;;5005994;28;20068;-77
2023/11/01 00:32:27;;;;;;;1.73;0.60;;;11.70;99.90;;;;;;5021462;28;20038;-77
2023/11/01 00:34:54;;;;;;;1.52;0.60;;;11.70;99.90;;;;;;5005599;28;20505;-77
2023/11/01 00:37:21;;;;;;;2.28;0.57;;;11.70;99.90;;;;;;5004057;28;20046;-76
2023/11/01 00:39:48;;;;;;;3.45;0.80;;;11.70;99.90;;;;;;5004262;28;20109;-77
2023/11/01 00:42:15;;;;;;;4.10;0.82;;;11.60;99.90;;;;;;4999923;28;20046;-77
2023/11/01 00:44:42;;;;;;;1.92;0.60;;;11.70;99.90;;;;;;5007540;28;20042;-78
2023/11/01 00:47:09;;;;;;;4.85;0.60;;;11.60;99.90;;;;;;5008565;28;20065;-78
2023/11/01 00:49:35;;;;;;;2.03;0.60;;;11.60;99.90;;;;;;5008441;28;20046;-77
2023/11/01 00:52:02;;;;;;;4.15;0.90;;;11.60;99.90;;;;;;5017292;28;20046;-77
2023/11/01 00:54:29;;;;;;;4.55;1.13;;;11.60;99.90;;;;;;5006623;28;20106;-77
2023/11/01 00:56:56;;;;;;;2.20;0.63;;;11.60;99.90;;;;;;5008625;28;20120;-77
2023/11/01 00:59:23;;;;;;;4.85;0.90;;;11.60;99.90;;;;;;5014606;28;20038;-77
2023/11/01 01:01:50;;;;;;;5.53;0.90;;;11.60;99.90;;;;;;5014195;28;20050;-78
2023/11/01 01:04:17;;;;;;;1.02;0.50;;;11.60;99.90;;;;;;5026313;28;20042;-77
2023/11/01 01:06:44;;;;;;;3.60;0.60;;;11.60;99.90;;;;;;5003850;28;20047;-79
2023/11/01 01:09:12;;;;;;;1.88;0.50;;;11.60;99.90;;;;;;4998207;28;20539;-76
2023/11/01 01:11:39;;;;;;;2.85;0.60;;;11.60;99.90;;;;;;5006746;28;20077;-77
2023/11/01 01:14:06;;;;;;;2.80;0.80;;;11.50;99.90;;;;;;5019301;28;20049;-78
2023/11/01 01:16:33;;;;;;;2.80;0.60;;;11.50;99.90;;;;;;5009969;28;20054;-78
2023/11/01 01:19:01;;;;;;;4.57;0.93;;;11.50;99.90;;;;;;5005782;28;20046;-79
2023/11/01 01:21:28;;;;;;;5.05;0.88;;;11.50;99.90;;;;;;4998797;28;20105;-79
2023/11/01 01:23:55;;;;;;;2.90;0.52;;;11.50;99.90;;;;;;4998089;28;20499;-78
2023/11/01 01:26:22;;;;;;;4.32;0.77;;;11.50;99.90;;;;;;4999667;28;20070;-79
2023/11/01 01:28:49;;;;;;;4.28;0.90;;;11.50;99.90;;;;;;5001846;28;20058;-77
2023/11/01 01:31:15;;;;;;;1.90;0.60;;;11.50;99.90;;;;;;5023463;28;20046;-77
2023/11/01 01:33:44;;;;;;;2.85;0.85;;;11.50;99.90;;;;;;5010728;28;20050;-77
2023/11/01 01:36:11;;;;;;;3.78;0.75;;;11.40;99.90;;;;;;5010424;28;20046;-78
2023/11/01 01:38:38;;;;;;;6.05;0.60;;;11.40;99.90;;;;;;5009007;28;20046;-77
2023/11/01 01:41:05;;;;;;;1.52;0.55;;;11.40;99.90;;;;;;5014514;28;20490;-77
2023/11/01 01:43:32;;;;;;;3.25;0.68;;;11.40;99.90;;;;;;5014041;28;20043;-77
2023/11/01 01:46:15;;;;;;;4.10;1.02;;;11.40;99.90;;;;;;5014454;28;20069;-77
2023/11/01 01:48:44;;;;;;;1.20;0.52;;;11.40;99.90;;;;;;5010060;28;20046;-77
2023/11/01 01:51:12;;;;;;;2.70;0.55;;;11.50;99.90;;;;;;5003105;28;20104;-79
2023/11/01 01:53:41;;;;;;;5.93;0.70;;;11.50;99.90;;;;;;4995612;28;20116;-79
2023/11/01 01:56:08;;;;;;;2.73;0.60;;;11.50;99.90;;;;;;5006599;28;20046;-78
2023/11/01 01:58:40;;;;;;;2.75;0.50;;;11.50;99.90;;;;;;5008784;28;20080;-79
2023/11/01 02:01:08;;;;;;;0.98;0.50;;;11.50;99.90;;;;;;5006362;28;20585;-79
2023/11/01 02:03:36;;;;;;;3.85;0.45;;;11.50;99.90;;;;;;4997509;28;20494;-77
2023/11/01 02:06:05;;;;;;;2.72;0.60;;;11.50;99.90;;;;;;4994355;28;20047;-77
2023/11/01 02:08:32;;;;;;;2.42;0.80;;;11.50;99.90;;;;;;4996902;28;20077;-79
2023/11/01 02:10:59;;;;;;;4.10;0.65;;;11.50;99.90;;;;;;5001122;28;20054;-79
2023/11/01 02:13:26;;;;;;;1.77;0.73;;;11.40;99.90;;;;;;5004060;28;20133;-79
2023/11/01 02:15:53;;;;;;;4.40;0.60;;;11.40;99.90;;;;;;5003339;28;20510;-78
2023/11/01 02:18:19;;;;;;;1.98;0.80;;;11.50;99.90;;;;;;5001060;28;20050;-79
2023/11/01 02:20:47;;;;;;;3.33;0.60;;;11.40;99.90;;;;;;5004406;28;20070;-77
2023/11/01 02:23:16;;;;;;;2.88;0.50;;;11.40;99.90;;;;;;5009581;28;20045;-78
2023/11/01 02:25:43;;;;;;;1.88;0.63;;;11.40;99.90;;;;;;5003777;28;20048;-79
2023/11/01 02:28:12;;;;;;;3.72;0.70;;;11.40;99.90;;;;;;5006779;28;20052;-79
2023/11/01 02:30:42;;;;;;;2.67;0.80;;;11.40;99.90;;;;;;5001178;28;20053;-79
2023/11/01 02:33:09;;;;;;;;;;;11.40;99.90;;;;;;5003010;28;20050;-77
2023/11/01 02:35:35;;;;;;;1.20;0.45;;;11.40;99.90;;;;;;4997957;28;20016;-79
2023/11/01 02:38:02;;;;;;;3.85;0.60;;;11.40;99.90;;;;;;5003218;28;20094;-79
2023/11/01 02:40:29;;;;;;;3.38;0.95;;;11.40;99.90;;;;;;5004354;28;20548;-77
2023/11/01 02:42:56;;;;;;;2.85;0.55;;;11.40;99.90;;;;;;5003500;28;20050;-79
2023/11/01 02:45:23;;;;;;;4.95;0.70;;;11.40;99.90;;;;;;5017858;28;20042;-79
2023/11/01 02:47:50;;;;;;;2.45;0.55;;;11.40;99.90;;;;;;4997129;28;20062;-79
2023/11/01 02:50:19;;;;;;;3.67;0.80;;;11.40;99.90;;;;;;5002692;28;20057;-78
2023/11/01 02:52:47;;;;;;;2.63;0.60;;;11.40;99.90;;;;;;5003683;28;20469;-79
2023/11/01 02:55:15;;;;;;;5.97;0.75;;;11.40;99.90;;;;;;5001330;28;20050;-79
2023/11/01 02:57:43;;;;;;;3.78;0.88;;;11.40;99.90;;;;;;5002924;28;20058;-79
2023/11/01 03:00:18;;;;;;;1.45;0.40;;;11.30;99.90;;;;;;5002879;28;20092;-79
2023/11/01 03:02:47;;;;;;;3.70;0.75;;;11.30;99.90;;;;;;5000252;28;20050;-79
2023/11/01 03:05:17;;;;;;;3.63;0.55;;;11.30;99.90;;;;;;4999029;28;20413;-78
2023/11/01 03:07:44;;;;;;;2.25;0.68;;;11.30;99.90;;;;;;5001176;28;20046;-79
2023/11/01 03:10:11;;;;;;;1.65;0.60;;;11.20;99.90;;;;;;5006841;28;20089;-79
2023/11/01 03:12:39;;;;;;;2.78;0.80;;;11.20;99.90;;;;;;5000778;28;20072;-79
2023/11/01 03:15:07;;;;;;;3.78;0.57;;;11.20;99.90;;;;;;5002168;28;20046;-79
2023/11/01 03:17:35;;;;;;;4.80;0.68;;;11.20;99.90;;;;;;4999679;28;20042;-79
2023/11/01 03:20:07;;;;;;;4.55;0.65;;;11.10;99.90;;;;;;5000481;28;20137;-79
2023/11/01 03:22:34;;;;;;;2.08;0.63;;;11.10;99.90;;;;;;5005323;28;20042;-79
2023/11/01 03:25:02;;;;;;;1.45;0.52;;;11.10;99.90;;;;;;5003387;28;20489;-79
2023/11/01 03:27:29;;;;;;;1.83;0.52;;;11.10;99.90;;;;;;5003150;28;20051;-79
2023/11/01 03:29:58;;;;;;;2.67;0.70;;;11.10;99.90;;;;;;5000950;28;20145;-79
2023/11/01 03:32:25;;;;;;;3.25;0.80;;;11.00;99.90;;;;;;4996197;28;20100;-80
2023/11/01 03:34:52;;;;;;;2.42;0.70;;;11.00;99.90;;;;;;5002706;28;20054;-79
2023/11/01 03:37:19;;;;;;;3.78;0.70;;;11.00;99.90;;;;;;5026780;28;20046;-79
2023/11/01 03:39:46;;;;;;;2.67;0.82;;;11.00;99.90;;;;;;5003371;28;20042;-79
2023/11/01 03:42:13;;;;;;;2.85;0.73;;;10.90;99.90;;;;;;5011158;28;20054;-79
2023/11/01 03:44:39;;;;;;;1.63;0.73;;;10.90;99.90;;;;;;4999908;28;20506;-79
2023/11/01 03:47:06;;;;;;;7.15;1.00;;;10.90;99.90;;;;;;5000165;28;20046;-79
2023/11/01 03:49:33;;;;;;;2.67;0.80;;;10.80;99.90;;;;;;5007174;28;20081;-79
2023/11/01 03:52:01;;;;;;;3.10;0.80;;;10.80;99.90;;;;;;5012299;28;20061;-79
2023/11/01 03:54:29;;;;;;;2.58;0.70;;;10.70;99.90;;;;;;5003780;28;20052;-79
2023/11/01 03:56:56;;;;;;;3.13;0.65;;;10.70;99.90;;;;;;4999914;28;20054;-78
2023/11/01 03:59:22;;;;;;;2.92;0.77;;;10.70;99.90;;;;;;4999835;28;20050;-78
2023/11/01 04:01:49;;;;;;;2.47;0.70;;;10.70;99.90;;;;;;4998080;28;20085;-79
2023/11/01 04:04:16;;;;;;;2.65;0.90;;;10.60;99.90;;;;;;5003409;28;20045;-77
2023/11/01 04:06:43;;;;;;;1.48;0.77;;;10.60;99.90;;;;;;5018106;28;20046;-78
2023/11/01 04:09:10;;;;;;;3.38;1.10;;;10.50;99.90;;;;;;5000772;28;20047;-79
2023/11/01 04:11:37;;;;;;;3.13;0.90;;;10.50;99.90;;;;;;5000372;28;20061;-79
2023/11/01 04:14:04;;;;;;;5.97;1.30;;;10.50;99.90;;;;;;4998622;28;20076;-77
2023/11/01 04:16:31;;;;;;;1.95;0.82;;;10.40;99.90;;;;;;4997561;28;20069;-79
2023/11/01 04:18:58;;;;;;;3.00;1.05;;;10.40;99.90;;;;;;5001921;28;20050;-78
2023/11/01 04:21:24;;;;;;;4.60;0.90;;;10.40;99.90;;;;;;5019415;28;20571;-78
2023/11/01 04:23:52;;;;;;;3.08;0.95;;;10.40;99.90;;;;;;4999319;28;20050;-77
2023/11/01 04:26:22;;;;;;;4.05;1.08;;;10.30;99.90;;;;;;4995182;28;20482;-78
2023/11/01 04:28:48;;;;;;;2.30;0.80;;;10.30;99.90;;;;;;4996826;28;20053;-77
2023/11/01 04:31:17;;;;;;;4.00;0.90;;;10.30;99.90;;;;;;4995513;28;20086;-78
2023/11/01 04:33:43;;;;;;;4.38;1.02;;;10.20;99.90;;;;;;5001447;28;20057;-78
2023/11/01 04:36:10;;;;;;;2.33;0.40;;;10.20;99.90;;;;;;5002285;28;20050;-79
2023/11/01 04:38:37;;;;;;;4.38;0.80;;;10.20;99.90;;;;;;5011514;28;20053;-78
2023/11/01 04:41:09;;;;;;;4.80;0.65;;;10.20;99.90;;;;;;5007283;28;20104;-78
2023/11/01 04:43:37;;;;;;;2.45;0.57;;;10.10;99.90;;;;;;5000988;28;20054;-77
2023/11/01 04:46:05;;;;;;;2.40;0.75;;;10.20;99.90;;;;;;5014965;28;20046;-77
2023/11/01 04:48:32;;;;;;;4.07;0.85;;;10.10;99.90;;;;;;5031673;28;20481;-78
2023/11/01 04:51:01;;;;;;;3.20;0.68;;;10.10;99.90;;;;;;5002403;28;20054;-78
2023/11/01 04:53:29;;;;;;;3.08;0.82;;;10.10;99.90;;;;;;5016481;28;20132;-79
2023/11/01 04:55:55;;;;;;;1.98;0.80;;;10.10;99.90;;;;;;4997460;28;20046;-77
2023/11/01 04:58:23;;;;;;;1.85;0.90;;;10.20;99.90;;;;;;4996609;28;20502;-79
2023/11/01 05:00:50;;;;;;;0.63;0.40;;;10.20;99.90;;;;;;4998492;28;20058;-77
2023/11/01 05:03:17;;;;;;;0.90;0.45;;;10.20;99.90;;;;;;5005277;28;20462;-79
2023/11/01 05:05:44;;;;;;;2.47;0.52;;;10.20;99.90;;;;;;5016299;28;20049;-79
2023/11/01 05:08:11;;;;;;;1.65;0.70;;;10.20;99.90;;;;;;4999435;28;20070;-79
2023/11/01 05:10:38;;;;;;;1.70;0.70;;;10.10;99.90;;;;;;4998423;28;20050;-80
2023/11/01 05:13:05;;;;;;;3.95;0.80;;;10.20;99.90;;;;;;4997013;28;20085;-79
2023/11/01 05:15:36;;;;;;;2.85;0.55;;;10.20;99.90;;;;;;5004045;28;20049;-79
2023/11/01 05:18:03;;;;;;;1.92;0.50;;;10.10;99.90;;;;;;5001858;28;20062;-79
2023/11/01 05:20:30;;;;;;;1.27;0.57;;;10.20;99.90;;;;;;5002671;28;20050;-80
2023/11/01 05:22:57;;;;;;;2.33;0.63;;;10.20;99.90;;;;;;4999473;28;20088;-79
2023/11/01 05:25:25;;;;;;;2.78;0.65;;;10.10;99.90;;;;;;5009616;28;20073;-77
2023/11/01 05:27:56;;;;;;;1.67;0.60;;;10.10;99.90;;;;;;5008212;28;20074;-78
2023/11/01 05:30:23;;;;;;;2.72;0.70;;;10.10;99.90;;;;;;5012622;28;20049;-79
2023/11/01 05:32:50;;;;;;;1.23;0.47;;;10.10;99.90;;;;;;4997539;28;20054;-79
2023/11/01 05:35:17;;;;;;;1.38;0.40;;;10.20;99.90;;;;;;4999513;28;20322;-78
2023/11/01 05:37:44;;;;;;;3.50;0.93;;;10.20;99.90;;;;;;4997534;28;20054;-77
2023/11/01 05:40:15;;;;;;;1.10;0.60;;;10.10;99.90;;;;;;4996950;28;20056;-78
2023/11/01 05:42:42;;;;;;;;;;;10.10;99.90;;;;;;4997846;28;20042;-77
2023/11/01 05:45:10;;;;;;;1.80;0.70;;;10.10;99.90;;;;;;5002855;28;19948;-78
2023/11/01 05:47:37;;;;;;;10.27;0.90;;;10.10;99.90;;;;;;5002805;28;20092;-78
2023/11/01 05:50:06;;;;;;;4.13;0.52;;;10.10;99.90;;;;;;5002669;28;20046;-77
2023/11/01 05:52:35;;;;;;;1.65;0.40;;;10.10;99.90;;;;;;5001332;28;20050;-78
2023/11/01 05:55:01;;;;;;;4.22;0.77;;;10.00;99.90;;;;;;4999342;28;20050;-78
2023/11/01 05:57:50;;;;;;;2.47;0.80;;;10.00;99.90;;;;;;4999844;28;20081;-78
2023/11/01 06:00:18;;;;;;;2.22;1.00;;;10.00;99.90;;;;;;5005573;28;20054;-78
2023/11/01 06:02:45;;;;;;;4.30;0.90;;;10.00;99.90;;;;;;5018404;28;20101;-77
2023/11/01 06:05:12;;;;;;;1.23;0.70;;;9.90;99.90;;;;;;5000675;28;20047;-78
2023/11/01 06:07:39;;;;;;;1.70;0.90;;;9.90;99.90;;;;;;5001359;28;20046;-77
2023/11/01 06:10:06;;;;;;;4.38;0.90;;;9.90;99.90;;;;;;4996600;28;20489;-77
2023/11/01 06:12:33;;;;;;;2.13;0.77;;;9.90;99.90;;;;;;5004902;28;20046;-78
2023/11/01 06:15:00;;;;;;;1.33;0.65;;;9.90;99.90;;;;;;5003851;28;20056;-76
2023/11/01 06:17:26;;;;;;;2.55;0.90;;;9.90;99.90;;;;;;5012324;28;20049;-77
2023/11/01 06:19:53;;;;;;;3.35;0.63;;;9.90;99.90;;;;;;5000090;28;20074;-76
2023/11/01 06:22:20;;;;;;;4.22;0.70;;;9.90;99.90;;;;;;5008662;28;20130;-78
2023/11/01 06:24:47;;;;;;;2.08;0.90;;;9.80;99.90;;;;;;4997348;28;20047;-79
2023/11/01 06:27:13;;;;;;;5.97;2.70;;;9.80;99.90;;;;;;5005138;28;20120;-77
2023/11/01 06:29:43;;;;;;;4.30;2.03;;;9.80;99.90;;;;;;5005412;28;20081;-78
2023/11/01 06:32:11;;;;;;;4.15;1.40;;;9.80;99.90;;;;;;5002786;28;20537;-76
2023/11/01 06:34:38;;;;;;;5.18;2.03;;;9.80;99.90;;;;;;5000907;28;20054;-78
2023/11/01 06:37:06;;;;;;;3.80;1.55;;;9.80;99.90;;;;;;4999112;28;20050;-78
2023/11/01 06:39:32;;;;;;;3.55;1.85;;;9.80;99.90;;;;;;5001368;28;20042;-78
2023/11/01 06:41:59;;;;;;;6.95;1.48;;;9.80;99.90;;;;;;5000904;28;20074;-78
2023/11/01 06:44:26;;;;;;;3.17;1.35;;;9.80;99.90;;;;;;5005520;28;20050;-78
2023/11/01 06:46:53;;;;;;;2.50;1.27;;;9.80;99.90;;;;;;5001215;28;20046;-78
2023/11/01 06:49:20;;;;;;;4.93;1.30;;;9.80;99.90;;;;;;5010101;28;20054;-77
2023/11/01 06:51:47;;;;;;;3.60;1.55;;;9.80;99.90;;;;;;4998807;28;20093;-77
2023/11/01 06:54:14;;;;;;;5.25;1.23;;;9.80;99.90;;;;;;4999119;28;20092;-77
2023/11/01 06:56:47;;;;;;;4.88;1.30;;;9.80;99.90;;;;;;5007214;28;20073;-78
2023/11/01 06:59:14;;;;;;;6.80;2.00;;;9.80;99.90;;;;;;5003546;28;20046;-77
2023/11/01 07:01:41;;;;;;;4.93;1.67;;;9.80;99.90;;;;;;5018121;28;20129;-76
2023/11/01 07:04:09;;;;;;;5.47;2.00;;;9.80;99.90;;;;;;5000435;28;20278;-77
2023/11/01 07:06:36;;;;;;;3.83;1.60;;;9.80;99.90;;;;;;5000703;28;20048;-80
2023/11/01 07:09:05;;;;;;;3.70;1.60;;;9.80;99.90;;;;;;5002112;28;20051;-76
2023/11/01 07:11:31;;;;;;;5.28;2.28;;;9.80;99.90;;;;;;5006451;28;20052;-77
2023/11/01 07:13:59;;;;;;;2.70;1.55;;;9.80;99.90;;;;;;5004287;28;20054;-78
2023/11/01 07:16:25;;;;;;;3.13;1.70;;;9.90;99.90;;;;;;5012737;28;20077;-77
2023/11/01 07:18:52;;;;;;;3.55;2.08;;;9.80;99.90;;;;;;5001383;28;20085;-77
2023/11/01 07:21:19;;;;;;;2.30;1.50;;;9.90;99.90;;;;;;4998525;28;20399;-78
2023/11/01 07:23:45;;;;;;;5.13;1.80;;;9.90;99.90;;;;;;5002942;28;20042;-78
2023/11/01 07:26:12;;;;;;;4.68;2.10;;;9.90;99.90;;;;;;5004209;28;20493;-78
2023/11/01 07:28:39;;;;;;;7.35;2.28;;;10.00;99.90;;;;;;5003796;28;20070;-78
2023/11/01 07:31:06;;;;;;;8.32;2.63;;;10.00;99.90;;;;;;5002887;28;20050;-77
2023/11/01 07:33:32;;;;;;;10.55;4.95;;;10.00;99.90;;;;;;5003387;28;20107;-77
2023/11/01 07:35:59;;;;;;;8.68;4.45;;;10.00;99.90;;;;;;4999745;28;20506;-78
2023/11/01 07:38:26;;;;;;;8.18;3.58;;;10.10;99.90;;;;;;5007091;28;20050;-78
2023/11/01 07:40:53;;;;;;;4.40;2.55;;;10.10;99.90;;;;;;5009517;28;20049;-76
2023/11/01 07:43:20;;;;;;;5.15;1.83;;;10.20;99.90;;;;;;5014745;28;20127;-77
2023/11/01 07:45:47;;;;;;;5.88;1.80;;;10.20;99.90;;;;;;5003934;28;20054;-78
2023/11/01 07:48:14;;;;;;;5.70;1.50;;;10.30;99.90;;;;;;5009722;28;20055;-77
2023/11/01 07:50:42;;;;;;;5.78;1.55;;;10.40;99.90;;;;;;5019798;28;20047;-76
2023/11/01 07:53:09;;;;;;;9.25;1.80;;;10.50;99.90;;;;;;5006654;28;20069;-78
2023/11/01 07:55:36;;;;;;;5.00;1.83;;;10.50;99.90;;;;;;5006185;28;20050;-76
2023/11/01 07:58:03;;;;;;;5.43;1.50;;;10.60;99.90;;;;;;5001622;28;20089;-78
2023/11/01 08:00:29;;;;;;;8.77;1.83;;;10.70;99.90;;;;;;5002899;28;20465;-78
2023/11/01 08:02:56;;;;;;;5.72;1.67;;;10.80;99.90;;;;;;5001834;28;20050;-78
2023/11/01 08:05:23;;;;;;;4.38;1.60;;;10.90;99.90;;;;;;4998966;28;20133;-78
2023/11/01 08:07:51;;;;;;;6.50;1.50;;;11.00;99.90;;;;;;5005602;28;20054;-78
2023/11/01 08:10:18;;;;;;;4.28;1.65;;;11.20;99.90;;;;;;5002787;28;20100;-78
2023/11/01 08:12:46;;;;;;;4.40;1.90;;;11.20;99.90;;;;;;5000896;28;20046;-78
2023/11/01 08:15:13;;;;;;;4.03;1.15;;;11.30;99.90;;;;;;4997616;28;20108;-79
2023/11/01 08:17:40;;;;;;;3.90;0.90;;;11.50;99.90;;;;;;4997088;28;20097;-78
2023/11/01 08:20:07;;;;;;;5.00;0.75;;;11.60;99.90;;;;;;4999931;28;20050;-78
2023/11/01 08:22:34;;;;;;;0.45;0.40;;;11.70;99.90;;;;;;5004751;28;20480;-78
2023/11/01 08:25:02;;;;;;;2.67;0.52;;;11.80;99.90;;;;;;5004151;28;20050;-77
2023/11/01 08:27:28;;;;;;;1.92;0.88;;;11.90;99.90;;;;;;5003873;28;20042;-76
2023/11/01 08:29:55;;;;;;;1.65;0.75;;;11.90;99.90;;;;;;5009601;28;20281;-76
2023/11/01 08:32:22;;;;;;;3.67;0.73;;;12.00;99.90;;;;;;5003638;28;20498;-79
2023/11/01 08:34:49;;;;;;;3.85;0.60;;;12.10;99.90;;;;;;5004223;28;20056;-79
2023/11/01 08:37:16;;;;;;;0.63;0.45;;;12.20;99.90;;;;;;5003980;28;20506;-77
2023/11/01 08:39:42;;;;;;;1.58;0.82;;;12.30;99.90;;;;;;5001651;28;20050;-77
2023/11/01 08:42:09;;;;;;;1.90;0.40;;;12.30;99.90;;;;;;4998503;28;20133;-78
2023/11/01 08:44:36;;;;;;;0.68;0.40;;;12.40;99.90;;;;;;4998235;28;20085;-78
2023/11/01 08:47:04;;;;;;;2.17;0.45;;;12.50;99.90;;;;;;4995967;28;20050;-79
2023/11/01 08:49:32;;;;;;;2.28;0.40;;;12.50;99.90;;;;;;5007611;28;20050;-78
2023/11/01 08:51:58;;;;;;;1.48;0.55;;;12.60;99.90;;;;;;5001560;28;20557;-77
2023/11/01 08:54:26;;;;;;;2.38;0.60;;;12.70;99.90;;;;;;5000924;28;20050;-76
2023/11/01 08:56:54;;;;;;;2.10;0.57;;;12.80;99.90;;;;;;5013460;28;20542;-76
2023/11/01 08:59:22;;;;;;;1.33;0.40;;;12.90;99.90;;;;;;4994917;28;20065;-77
2023/11/01 09:01:49;;;;;;;3.50;0.60;;;12.90;99.90;;;;;;4994824;28;20050;-77
2023/11/01 09:04:16;;;;;;;1.95;0.50;;;13.00;99.90;;;;;;5002835;28;20101;-78
2023/11/01 09:06:43;;;;;;;1.90;0.70;;;13.10;99.90;;;;;;4994279;28;20073;-78
2023/11/01 09:09:09;;;;;;;2.40;0.60;;;13.10;99.90;;;;;;4999436;28;20096;-78
2023/11/01 09:11:36;;;;;;;3.65;1.23;;;13.20;99.90;;;;;;5001598;28;20086;-79
2023/11/01 09:14:04;;;;;;;2.03;0.50;;;13.20;99.90;;;;;;4997609;28;20133;-78
2023/11/01 09:16:31;;;;;;;2.05;0.60;;;13.30;99.90;;;;;;4996424;28;20546;-77
2023/11/01 09:18:58;;;;;;;1.10;0.50;;;13.40;99.90;;;;;;5003945;28;20472;-77
2023/11/01 09:21:25;;;;;;;4.07;0.50;;;13.40;99.90;;;;;;5001087;28;20124;-78
2023/11/01 09:23:52;;;;;;;2.35;0.45;;;13.50;99.90;;;;;;5001603;28;20062;-77
2023/11/01 09:26:19;;;;;;;1.23;0.35;;;13.60;99.90;;;;;;4998578;28;20046;-78
2023/11/01 09:28:45;;;;;;;25.88;2.13;;;13.60;99.90;;;;;;4997321;28;20042;-79
2023/11/01 09:31:12;;;;;;;3.30;2.30;;;13.70;99.90;;;;;;4998429;28;20058;-78
2023/11/01 09:33:39;;;;;;;0.98;0.40;;;13.80;99.90;;;;;;5005341;28;20490;-79
2023/11/01 09:36:07;;;;;;;1.65;0.30;;;13.80;99.90;;;;;;5004470;28;20050;-79
2023/11/01 09:38:34;;;;;;;0.30;0.30;;;13.90;99.90;;;;;;4999616;28;20054;-77
2023/11/01 09:41:06;;;;;;;0.82;0.40;;;13.90;99.90;;;;;;4997796;28;20460;-77
2023/11/01 09:43:35;;;;;;;0.45;0.35;;;14.00;99.90;;;;;;4997236;28;20046;-78
2023/11/01 09:46:03;;;;;;;0.40;0.30;;;14.10;99.90;;;;;;5016969;28;20050;-79
2023/11/01 09:48:31;;;;;;;1.85;0.30;;;14.10;99.90;;;;;;5003467;28;20042;-79
2023/11/01 09:50:58;;;;;;;1.25;0.28;;;14.20;99.90;;;;;;5001354;28;20281;-77
2023/11/01 09:53:25;;;;;;;3.85;0.40;;;14.20;99.90;;;;;;4999347;28;20058;-78
2023/11/01 09:55:53;;;;;;;1.10;0.20;;;14.30;99.90;;;;;;5012896;28;20046;-79
2023/11/01 09:58:20;;;;;;;0.75;0.35;;;14.40;99.90;;;;;;4998682;28;20055;-77
2023/11/01 10:00:48;;;;;;;0.40;0.20;;;14.50;99.90;;;;;;4997745;28;20190;-79
2023/11/01 10:03:17;;;;;;;0.98;0.30;;;14.50;99.90;;;;;;5001321;28;20141;-79
2023/11/01 10:05:44;;;;;;;1.45;0.30;;;14.60;99.90;;;;;;5001087;28;20076;-78
2023/11/01 10:08:11;;;;;;;0.82;0.30;;;14.60;99.90;;;;;;4998427;28;20505;-78
2023/11/01 10:10:38;;;;;;;0.38;0.25;;;14.70;99.90;;;;;;5005593;28;20085;-78
2023/11/01 10:13:05;;;;;;;0.40;0.10;;;14.80;99.90;;;;;;4995838;28;20137;-79
2023/11/01 10:15:32;;;;;;;0.75;0.30;;;14.80;99.90;;;;;;5004756;28;20081;-77
2023/11/01 10:17:59;;;;;;;0.52;0.30;;;14.90;99.90;;;;;;5003404;28;20058;-79
2023/11/01 10:20:29;;;;;;;1.30;0.50;;;14.90;99.90;;;;;;5002737;28;20069;-79
2023/11/01 10:22:57;;;;;;;1.00;0.30;;;15.00;99.90;;;;;;5001676;28;20042;-78
2023/11/01 10:25:24;;;;;;;0.65;0.35;;;15.00;99.90;;;;;;4999175;28;20077;-78
2023/11/01 10:27:52;;;;;;;1.00;0.38;;;15.00;99.90;;;;;;5013027;28;20046;-79
2023/11/01 10:30:19;;;;;;;1.60;0.40;;;15.10;99.90;;;;;;5005967;28;20042;-79
2023/11/01 10:32:59;;;;;;;1.45;0.77;;;15.10;99.90;;;;;;5007525;28;20517;-77
2023/11/01 10:35:26;;;;;;;;;;;15.20;99.90;;;;;;5004679;28;20105;-78
2023/11/01 10:37:59;;;;;;;1.63;0.30;;;15.20;99.90;;;;;;5010281;28;19961;-77
2023/11/01 10:40:27;;;;;;;1.17;0.40;;;15.20;99.90;;;;;;5010175;28;20105;-79
2023/11/01 10:42:58;;;;;;;1.42;0.60;;;15.30;99.90;;;;;;5012961;28;20053;-78
2023/11/01 10:45:24;;;;;;;;;;;15.30;99.90;;;;;;5020134;28;20046;-78
2023/11/01 10:47:55;;;;;;;0.93;0.30;;;15.40;99.90;;;;;;5018565;28;19925;-77
2023/11/01 10:50:22;;;;;;;0.98;0.50;;;15.40;99.90;;;;;;5011891;28;20046;-78
2023/11/01 10:52:49;;;;;;;1.45;0.30;;;15.50;99.90;;;;;;5011253;28;20116;-77
2023/11/01 10:55:20;;;;;;;0.82;0.40;;;15.60;99.90;;;;;;5000985;28;20108;-77
2023/11/01 10:57:51;;;;;;;0.20;0.20;;;15.60;99.90;;;;;;5005355;28;20081;-78
2023/11/01 11:00:29;;;;;;;0.40;0.30;;;15.70;99.90;;;;;;4998889;28;20411;-77
2023/11/01 11:03:15;;;;;;;1.63;0.63;;;15.70;99.90;;;;;;4997201;28;20046;-77
2023/11/01 11:05:43;;;;;;;0.90;0.28;;;15.80;99.90;;;;;;5001641;28;20046;-77
2023/11/01 11:08:10;;;;;;;0.47;0.30;;;15.80;99.90;;;;;;4999091;28;20466;-78
2023/11/01 11:10:42;;;;;;;2.40;0.30;;;15.90;99.90;;;;;;5007564;28;20050;-77
2023/11/01 11:13:08;;;;;;;1.55;0.82;;;15.90;99.90;;;;;;5004711;28;20045;-76
2023/11/01 11:18:18;;;;;;;0.38;0.30;;;15.90;99.90;;;;;;4997504;28;20054;-76
2023/11/01 11:20:45;;;;;;;0.20;0.20;;;16.00;99.90;;;;;;5000623;28;20050;-76
2023/11/01 11:23:14;;;;;;;0.65;0.30;;;16.00;99.90;;;;;;4997982;28;20050;-76
2023/11/01 11:25:42;;;;;;;1.17;0.40;;;16.00;99.90;;;;;;5009911;28;20498;-76
2023/11/01 11:28:10;;;;;;;0.38;0.25;;;16.00;99.90;;;;;;5004963;28;20042;-77
2023/11/01 11:31:03;;;;;;;0.40;0.30;;;16.00;99.90;;;;;;5002113;28;20124;-77
2023/11/01 11:33:33;;;;;;;2.35;0.73;;;16.00;99.90;;;;;;5000045;28;20104;-77
2023/11/01 11:36:11;;;;;;;1.67;0.40;;;16.00;99.90;;;;;;5019899;28;20109;-77
2023/11/01 11:39:00;;;;;;;0.43;0.30;;;16.00;99.90;;;;;;4997857;28;20042;-76
2023/11/01 11:41:36;;;;;;;1.70;0.52;;;15.90;99.90;;;;;;4999741;28;20089;-76
2023/11/01 11:44:13;;;;;;;0.35;0.28;;;15.90;99.90;;;;;;5000322;28;20070;-77
2023/11/01 11:46:50;;;;;;;1.70;0.40;;;15.90;99.90;;;;;;5003831;28;20066;-77
2023/11/01 11:49:24;;;;;;;2.22;0.30;;;15.80;99.90;;;;;;4997293;28;20050;-77
2023/11/01 11:52:03;;;;;;;0.20;0.20;;;15.80;99.90;;;;;;4999957;28;20049;-79
2023/11/01 11:54:31;;;;;;;1.13;0.30;;;15.80;99.90;;;;;;4998961;28;20462;-77
2023/11/01 11:57:08;;;;;;;1.85;0.40;;;15.70;99.90;;;;;;5004358;28;20046;-77
2023/11/01 11:59:35;;;;;;;2.15;0.60;;;15.70;99.90;;;;;;5000718;28;20564;-78
2023/11/01 12:02:06;;;;;;;1.65;0.40;;;15.70;99.90;;;;;;5001487;28;20518;-77
2023/11/01 12:04:34;;;;;;;0.50;0.50;;;15.60;99.90;;;;;;4998045;28;20073;-78
2023/11/01 12:07:06;;;;;;;0.45;0.30;;;15.60;99.90;;;;;;4993445;28;20042;-78
2023/11/01 12:09:32;;;;;;;1.75;0.50;;;15.60;99.90;;;;;;5003801;28;20506;-79
2023/11/01 12:12:09;;;;;;;0.68;0.30;;;15.60;99.90;;;;;;5005742;28;20100;-77
2023/11/01 12:14:37;;;;;;;0.52;0.20;;;15.60;99.90;;;;;;5002402;28;20430;-77
2023/11/01 12:17:05;;;;;;;0.38;0.38;;;15.50;99.90;;;;;;5001366;28;20046;-77
2023/11/01 12:19:35;;;;;;;1.30;0.80;;;15.50;99.90;;;;;;4997971;28;20097;-79
2023/11/01 12:22:01;;;;;;;0.75;0.30;;;15.50;99.90;;;;;;4993210;28;20038;-78
2023/11/01 12:24:37;;;;;;;0.57;0.30;;;15.50;99.90;;;;;;5004424;28;20049;-79
2023/11/01 12:27:11;;;;;;;1.13;0.30;;;15.50;99.90;;;;;;5000259;28;20182;-78
2023/11/01 12:29:49;;;;;;;1.88;0.55;;;15.60;99.90;;;;;;5001079;28;20092;-78
2023/11/01 12:32:21;;;;;;;0.50;0.40;;;15.60;99.90;;;;;;4997076;28;20050;-79
2023/11/01 12:34:48;;;;;;;2.13;0.25;;;15.60;99.90;;;;;;4999658;28;20050;-78
2023/11/01 12:37:20;;;;;;;0.30;0.30;;;15.70;99.90;;;;;;5000570;28;20482;-77
2023/11/01 12:40:12;;;;;;;2.17;0.30;;;15.70;99.90;;;;;;5005138;28;20113;-77
2023/11/01 12:42:51;;;;;;;0.40;0.30;;;15.70;99.90;;;;;;5016122;28;20038;-77
2023/11/01 12:45:23;;;;;;;0.20;0.20;;;15.80;99.90;;;;;;4996573;28;20102;-77
2023/11/01 12:47:56;;;;;;;0.90;0.30;;;15.80;99.90;;;;;;5007014;28;20057;-78
2023/11/01 12:50:25;;;;;;;1.50;0.60;;;15.80;99.90;;;;;;4997180;28;20082;-78
2023/11/01 12:52:52;;;;;;;2.05;0.30;;;15.80;99.90;;;;;;5013340;28;20073;-77
2023/11/01 12:55:20;;;;;;;0.57;0.30;;;15.80;99.90;;;;;;5002640;28;20092;-78